Anzoras — EAZC — position and weather

sailwx.info

Track history (hours):
 
Tides and Currents Weather Stations Pressure Air Temp Water Temp Dewpoint Dewpoint Depression Visibility Wind Speed Wind Dir Waves Ship Positions

Anzoras

Last reported at 2015-Sep-03 01:28 UTC. Time now 2015-Sep-03 19:17 UTC.
Position N 36°36' W 002°46'.

Length 100 m; draft 6.5 m.

Type: Cargo ship. MMSI: 224376000.

Date/timePositionNaut miles runAvg speedWind from/ knotsBaromVisibWave heightAir tempDewpointWater temp
2015-Sep-03 01:28N 36°36' W 002°46'104 9.5
2015-Sep-02 14:31N 37°23' W 000°50'1611.4
2015-Sep-02 13:08N 37°34' W 000°35'711.4
2015-Sep-02 12:33N 37°39' W 000°30'1211.6
2015-Sep-02 11:33N 37°50' W 000°24'13710.5
2015-Sep-01 22:33N 40°01' E 000°24'2511.0
2015-Sep-01 20:17N 40°21' E 000°44'2011.1
2015-Sep-01 18:29N 40°38' E 000°58'1410.7
2015-Sep-01 17:12N 40°49' E 001°09'2110.9
2015-Sep-01 15:19N 40°58' E 001°33'1311.2
2015-Sep-01 14:11N 41°04' E 001°48'710.9
2015-Sep-01 13:32N 41°08' E 001°57'1110.9
2015-Sep-01 12:33N 41°13' E 002°08'8 8.3
2015-Sep-01 11:33N 41°22' E 002°11'0 0.0
2015-Aug-31 01:29N 41°21' E 002°11'2 0.2
2015-Aug-30 17:16N 41°20' E 002°12'0 0.0
2015-Aug-30 15:04N 41°20' E 002°12'0 0.0
2015-Aug-30 02:16N 41°20' E 002°12'0 0.0
2015-Aug-30 01:22N 41°20' E 002°12'0 0.0
2015-Aug-29 23:16N 41°20' E 002°12'0 0.0
2015-Aug-29 22:28N 41°20' E 002°12'0 0.0
2015-Aug-29 20:28N 41°20' E 002°12'0 0.1
2015-Aug-29 18:33N 41°20' E 002°12'2 2.1
2015-Aug-29 17:33N 41°19' E 002°14'9 9.4
2015-Aug-29 16:33N 41°22' E 002°26'1010.1
2015-Aug-29 15:33N 41°28' E 002°37'9 9.4
2015-Aug-29 14:33N 41°32' E 002°49'10 9.7
2015-Aug-29 13:33N 41°35' E 003°00'1510.1
2015-Aug-29 12:07N 41°43' E 003°17'610.4
2015-Aug-29 11:33N 41°45' E 003°24'1010.3
2015-Aug-29 10:33N 41°50' E 003°37'2711.2
2015-Aug-29 08:09N 42°00' E 004°10'1111.2
2015-Aug-29 07:09N 42°04' E 004°25'1811.4
2015-Aug-29 05:32N 42°12' E 004°47'9411.8
2015-Aug-28 21:32N 42°52' E 006°43'1212.0
2015-Aug-28 20:34N 42°58' E 006°57'1212.0
2015-Aug-28 19:33N 43°06' E 007°08'2412.0
2015-Aug-28 17:33N 43°24' E 007°31'1411.9
2015-Aug-28 16:23N 43°34' E 007°45'1312.1
2015-Aug-28 15:17N 43°43' E 007°58'912.2
2015-Aug-28 14:32N 43°49' E 008°07'1212.2
2015-Aug-28 13:33N 43°58' E 008°18'1212.4
2015-Aug-28 12:33N 44°08' E 008°28'1111.1
2015-Aug-28 11:33N 44°19' E 008°31'1 0.5
2015-Aug-28 10:28N 44°19' E 008°30'0 0.0
2015-Aug-28 09:28N 44°19' E 008°30'0 0.0
2015-Aug-28 08:28N 44°19' E 008°30'0 0.0
2015-Aug-28 07:16N 44°19' E 008°30'0 0.0
2015-Aug-28 06:16N 44°19' E 008°30'0 0.0
2015-Aug-28 05:28N 44°19' E 008°30'0 0.0
2015-Aug-28 04:31N 44°19' E 008°30'0 0.0
2015-Aug-28 03:28N 44°19' E 008°30'0 0.0
2015-Aug-28 02:28N 44°19' E 008°30'0 0.0
2015-Aug-28 01:28N 44°19' E 008°30'0 0.0
2015-Aug-28 00:34N 44°19' E 008°30'0 0.0
2015-Aug-27 23:28N 44°19' E 008°30'0 0.0
2015-Aug-27 22:31N 44°19' E 008°30'0 0.0
2015-Aug-27 21:28N 44°19' E 008°30'0 0.0
2015-Aug-27 20:28N 44°19' E 008°30'0 0.0
2015-Aug-27 19:28N 44°19' E 008°30'0 0.0
2015-Aug-27 18:28N 44°19' E 008°30'0 0.0
2015-Aug-27 17:16N 44°19' E 008°30'0 0.0
2015-Aug-27 16:28N 44°19' E 008°30'0 0.0
2015-Aug-27 15:28N 44°19' E 008°30'0 0.0
2015-Aug-27 14:28N 44°19' E 008°30'0 0.0
2015-Aug-27 13:29N 44°19' E 008°30'0 0.0
2015-Aug-27 12:28N 44°19' E 008°30'0 0.0
2015-Aug-27 11:31N 44°19' E 008°30'0 0.0
2015-Aug-27 10:28N 44°19' E 008°30'0 0.0
2015-Aug-27 09:28N 44°19' E 008°30'0 0.0
2015-Aug-27 08:28N 44°19' E 008°30'0 0.0
2015-Aug-27 07:28N 44°19' E 008°30'0 0.0
2015-Aug-27 06:28N 44°19' E 008°30'0 0.0
2015-Aug-27 05:34N 44°19' E 008°30'0 0.0
2015-Aug-27 04:16N 44°19' E 008°30'0 0.0
2015-Aug-27 03:28N 44°19' E 008°30'0 0.0
2015-Aug-27 02:28N 44°19' E 008°30'0 0.0
2015-Aug-27 01:28N 44°19' E 008°30'0 0.0
2015-Aug-27 00:28N 44°19' E 008°30'0 0.0
2015-Aug-26 23:31N 44°19' E 008°30'0 0.0
2015-Aug-26 22:28N 44°19' E 008°30'0 0.0
2015-Aug-26 21:16N 44°19' E 008°30'0 0.0
2015-Aug-26 20:28N 44°19' E 008°30'0 0.0
2015-Aug-26 19:28N 44°19' E 008°30'0 0.0
2015-Aug-26 18:28N 44°19' E 008°30'0 0.0
2015-Aug-26 17:31N 44°19' E 008°30'0 0.0
2015-Aug-26 16:28N 44°19' E 008°30'0 0.0
2015-Aug-26 15:28N 44°19' E 008°30'0 0.0
2015-Aug-26 14:28N 44°19' E 008°30'0 0.0
2015-Aug-26 13:22N 44°19' E 008°30'0 0.0
2015-Aug-26 12:31N 44°19' E 008°30'0 0.0
2015-Aug-26 11:31N 44°19' E 008°30'0 0.0
2015-Aug-26 10:31N 44°19' E 008°30'0 0.0
2015-Aug-26 09:28N 44°19' E 008°30'0 0.0
2015-Aug-26 08:34N 44°19' E 008°30'0 0.0
2015-Aug-26 07:28N 44°19' E 008°30'0 0.0
2015-Aug-26 06:28N 44°19' E 008°30'0 0.0
2015-Aug-26 05:28N 44°19' E 008°30'0 0.0
2015-Aug-26 04:28N 44°19' E 008°30'0 0.0
2015-Aug-26 03:28N 44°19' E 008°30'0 0.0
2015-Aug-26 02:22N 44°19' E 008°30'0 0.0
2015-Aug-26 01:28N 44°19' E 008°30'0 0.0
2015-Aug-26 00:28N 44°19' E 008°30'0 0.0
2015-Aug-25 23:28N 44°19' E 008°30'0 0.0
2015-Aug-25 22:28N 44°19' E 008°30'0 0.0
2015-Aug-25 21:34N 44°19' E 008°30'0 0.0
2015-Aug-25 20:28N 44°19' E 008°30'0 0.0
2015-Aug-25 19:28N 44°19' E 008°30'0 0.0
2015-Aug-25 18:28N 44°19' E 008°30'0 0.0
2015-Aug-25 17:28N 44°19' E 008°30'0 0.0
2015-Aug-25 16:28N 44°19' E 008°30'0 0.0
2015-Aug-25 15:34N 44°19' E 008°30'0 0.0
2015-Aug-25 14:28N 44°19' E 008°30'0 0.0
2015-Aug-25 13:28N 44°19' E 008°30'0 0.0
2015-Aug-25 12:28N 44°19' E 008°30'0 0.0
2015-Aug-25 11:28N 44°19' E 008°30'0 0.0
2015-Aug-25 10:28N 44°19' E 008°30'0 0.0
2015-Aug-25 09:28N 44°19' E 008°30'0 0.0
2015-Aug-25 08:28N 44°19' E 008°30'0 0.0
2015-Aug-25 07:22N 44°19' E 008°30'0 0.0
2015-Aug-25 06:28N 44°19' E 008°30'0 0.1
2015-Aug-25 05:33N 44°19' E 008°30'2 1.7
2015-Aug-25 04:33N 44°18' E 008°32'9 9.2
2015-Aug-25 03:33N 44°09' E 008°31'10 9.8
2015-Aug-25 02:33N 44°01' E 008°23'42 9.9
2015-Aug-24 22:22N 43°32' E 007°41'13 9.9
2015-Aug-24 21:04N 43°24' E 007°27'8 9.9
2015-Aug-24 20:14N 43°19' E 007°18'710.5
2015-Aug-24 19:33N 43°15' E 007°11'1110.6
2015-Aug-24 18:33N 43°08' E 006°59'1110.6
2015-Aug-24 17:34N 43°01' E 006°48'  
Track history (hours):
 
Tides and Currents Weather Stations Pressure Air Temp Water Temp Dewpoint Dewpoint Depression Visibility Wind Speed Wind Dir Waves Ship Positions

Anzoras

Last reported at 2015-Sep-03 01:28 UTC. Time now 2015-Sep-03 19:17 UTC.
Position N 36°36' W 002°46'.

Length 100 m; draft 6.5 m.

Type: Cargo ship. MMSI: 224376000.

Date/timePositionNaut miles runAvg speedWind from/ knotsBaromVisibWave heightAir tempDewpointWater temp
2015-Sep-03 01:28N 36°36' W 002°46'104 9.5
2015-Sep-02 14:31N 37°23' W 000°50'1611.4
2015-Sep-02 13:08N 37°34' W 000°35'711.4
2015-Sep-02 12:33N 37°39' W 000°30'1211.6
2015-Sep-02 11:33N 37°50' W 000°24'13710.5
2015-Sep-01 22:33N 40°01' E 000°24'2511.0
2015-Sep-01 20:17N 40°21' E 000°44'2011.1
2015-Sep-01 18:29N 40°38' E 000°58'1410.7
2015-Sep-01 17:12N 40°49' E 001°09'2110.9
2015-Sep-01 15:19N 40°58' E 001°33'1311.2
2015-Sep-01 14:11N 41°04' E 001°48'710.9
2015-Sep-01 13:32N 41°08' E 001°57'1110.9
2015-Sep-01 12:33N 41°13' E 002°08'8 8.3
2015-Sep-01 11:33N 41°22' E 002°11'0 0.0
2015-Aug-31 01:29N 41°21' E 002°11'2 0.2
2015-Aug-30 17:16N 41°20' E 002°12'0 0.0
2015-Aug-30 15:04N 41°20' E 002°12'0 0.0
2015-Aug-30 02:16N 41°20' E 002°12'0 0.0
2015-Aug-30 01:22N 41°20' E 002°12'0 0.0
2015-Aug-29 23:16N 41°20' E 002°12'0 0.0
2015-Aug-29 22:28N 41°20' E 002°12'0 0.0
2015-Aug-29 20:28N 41°20' E 002°12'0 0.1
2015-Aug-29 18:33N 41°20' E 002°12'2 2.1
2015-Aug-29 17:33N 41°19' E 002°14'9 9.4
2015-Aug-29 16:33N 41°22' E 002°26'1010.1
2015-Aug-29 15:33N 41°28' E 002°37'9 9.4
2015-Aug-29 14:33N 41°32' E 002°49'10 9.7
2015-Aug-29 13:33N 41°35' E 003°00'1510.1
2015-Aug-29 12:07N 41°43' E 003°17'610.4
2015-Aug-29 11:33N 41°45' E 003°24'1010.3
2015-Aug-29 10:33N 41°50' E 003°37'2711.2
2015-Aug-29 08:09N 42°00' E 004°10'1111.2
2015-Aug-29 07:09N 42°04' E 004°25'1811.4
2015-Aug-29 05:32N 42°12' E 004°47'9411.8
2015-Aug-28 21:32N 42°52' E 006°43'1212.0
2015-Aug-28 20:34N 42°58' E 006°57'1212.0
2015-Aug-28 19:33N 43°06' E 007°08'2412.0
2015-Aug-28 17:33N 43°24' E 007°31'1411.9
2015-Aug-28 16:23N 43°34' E 007°45'1312.1
2015-Aug-28 15:17N 43°43' E 007°58'912.2
2015-Aug-28 14:32N 43°49' E 008°07'1212.2
2015-Aug-28 13:33N 43°58' E 008°18'1212.4
2015-Aug-28 12:33N 44°08' E 008°28'1111.1
2015-Aug-28 11:33N 44°19' E 008°31'1 0.5
2015-Aug-28 10:28N 44°19' E 008°30'0 0.0
2015-Aug-28 09:28N 44°19' E 008°30'0 0.0
2015-Aug-28 08:28N 44°19' E 008°30'0 0.0
2015-Aug-28 07:16N 44°19' E 008°30'0 0.0
2015-Aug-28 06:16N 44°19' E 008°30'0 0.0
2015-Aug-28 05:28N 44°19' E 008°30'0 0.0
2015-Aug-28 04:31N 44°19' E 008°30'0 0.0
2015-Aug-28 03:28N 44°19' E 008°30'0 0.0
2015-Aug-28 02:28N 44°19' E 008°30'0 0.0
2015-Aug-28 01:28N 44°19' E 008°30'0 0.0
2015-Aug-28 00:34N 44°19' E 008°30'0 0.0
2015-Aug-27 23:28N 44°19' E 008°30'0 0.0
2015-Aug-27 22:31N 44°19' E 008°30'0 0.0
2015-Aug-27 21:28N 44°19' E 008°30'0 0.0
2015-Aug-27 20:28N 44°19' E 008°30'0 0.0
2015-Aug-27 19:28N 44°19' E 008°30'0 0.0
2015-Aug-27 18:28N 44°19' E 008°30'0 0.0
2015-Aug-27 17:16N 44°19' E 008°30'0 0.0
2015-Aug-27 16:28N 44°19' E 008°30'0 0.0
2015-Aug-27 15:28N 44°19' E 008°30'0 0.0
2015-Aug-27 14:28N 44°19' E 008°30'0 0.0
2015-Aug-27 13:29N 44°19' E 008°30'0 0.0
2015-Aug-27 12:28N 44°19' E 008°30'0 0.0
2015-Aug-27 11:31N 44°19' E 008°30'0 0.0
2015-Aug-27 10:28N 44°19' E 008°30'0 0.0
2015-Aug-27 09:28N 44°19' E 008°30'0 0.0
2015-Aug-27 08:28N 44°19' E 008°30'0 0.0
2015-Aug-27 07:28N 44°19' E 008°30'0 0.0
2015-Aug-27 06:28N 44°19' E 008°30'0 0.0
2015-Aug-27 05:34N 44°19' E 008°30'0 0.0
2015-Aug-27 04:16N 44°19' E 008°30'0 0.0
2015-Aug-27 03:28N 44°19' E 008°30'0 0.0
2015-Aug-27 02:28N 44°19' E 008°30'0 0.0
2015-Aug-27 01:28N 44°19' E 008°30'0 0.0
2015-Aug-27 00:28N 44°19' E 008°30'0 0.0
2015-Aug-26 23:31N 44°19' E 008°30'0 0.0
2015-Aug-26 22:28N 44°19' E 008°30'0 0.0
2015-Aug-26 21:16N 44°19' E 008°30'0 0.0
2015-Aug-26 20:28N 44°19' E 008°30'0 0.0
2015-Aug-26 19:28N 44°19' E 008°30'0 0.0
2015-Aug-26 18:28N 44°19' E 008°30'0 0.0
2015-Aug-26 17:31N 44°19' E 008°30'0 0.0
2015-Aug-26 16:28N 44°19' E 008°30'0 0.0
2015-Aug-26 15:28N 44°19' E 008°30'0 0.0
2015-Aug-26 14:28N 44°19' E 008°30'0 0.0
2015-Aug-26 13:22N 44°19' E 008°30'0 0.0
2015-Aug-26 12:31N 44°19' E 008°30'0 0.0
2015-Aug-26 11:31N 44°19' E 008°30'0 0.0
2015-Aug-26 10:31N 44°19' E 008°30'0 0.0
2015-Aug-26 09:28N 44°19' E 008°30'0 0.0
2015-Aug-26 08:34N 44°19' E 008°30'0 0.0
2015-Aug-26 07:28N 44°19' E 008°30'0 0.0
2015-Aug-26 06:28N 44°19' E 008°30'0 0.0
2015-Aug-26 05:28N 44°19' E 008°30'0 0.0
2015-Aug-26 04:28N 44°19' E 008°30'0 0.0
2015-Aug-26 03:28N 44°19' E 008°30'0 0.0
2015-Aug-26 02:22N 44°19' E 008°30'0 0.0
2015-Aug-26 01:28N 44°19' E 008°30'0 0.0
2015-Aug-26 00:28N 44°19' E 008°30'0 0.0
2015-Aug-25 23:28N 44°19' E 008°30'0 0.0
2015-Aug-25 22:28N 44°19' E 008°30'0 0.0
2015-Aug-25 21:34N 44°19' E 008°30'0 0.0
2015-Aug-25 20:28N 44°19' E 008°30'0 0.0
2015-Aug-25 19:28N 44°19' E 008°30'0 0.0
2015-Aug-25 18:28N 44°19' E 008°30'0 0.0
2015-Aug-25 17:28N 44°19' E 008°30'0 0.0
2015-Aug-25 16:28N 44°19' E 008°30'0 0.0
2015-Aug-25 15:34N 44°19' E 008°30'0 0.0
2015-Aug-25 14:28N 44°19' E 008°30'0 0.0
2015-Aug-25 13:28N 44°19' E 008°30'0 0.0
2015-Aug-25 12:28N 44°19' E 008°30'0 0.0
2015-Aug-25 11:28N 44°19' E 008°30'0 0.0
2015-Aug-25 10:28N 44°19' E 008°30'0 0.0
2015-Aug-25 09:28N 44°19' E 008°30'0 0.0
2015-Aug-25 08:28N 44°19' E 008°30'0 0.0
2015-Aug-25 07:22N 44°19' E 008°30'0 0.0
2015-Aug-25 06:28N 44°19' E 008°30'0 0.1
2015-Aug-25 05:33N 44°19' E 008°30'2 1.7
2015-Aug-25 04:33N 44°18' E 008°32'9 9.2
2015-Aug-25 03:33N 44°09' E 008°31'10 9.8
2015-Aug-25 02:33N 44°01' E 008°23'42 9.9
2015-Aug-24 22:22N 43°32' E 007°41'13 9.9
2015-Aug-24 21:04N 43°24' E 007°27'8 9.9
2015-Aug-24 20:14N 43°19' E 007°18'710.5
2015-Aug-24 19:33N 43°15' E 007°11'1110.6
2015-Aug-24 18:33N 43°08' E 006°59'1110.6
2015-Aug-24 17:34N 43°01' E 006°48'  

Dump ship's entire track history